Kahuku, Hawaii
Current Conditions -  °F | °C
As of 9:15 AM on Thursday 30 Oct 2014 (Local Time) from PHHI Reporting Station
Drizzle Drizzle  
Wind Chill: 24°   Ceiling: 2600
Heat Index: 24°   Visibility: 10mi
Dew Point: 19°   Wind: 1mph
Humidity: 73%   Direction: NA
Pressure: 30.11"   Gusts: NA
Location:  21.67°N, 157.94°W
Report Text: PHHI 301915Z AUTO VRB01KT 10SM DZ BKN026 OVC032 24/19 A3011 RMK AO2 DZB1916 $
Loading
Personal Weather Stations






























Interactive Weather Map
Tropical Storm Tracking
New forecast layout! Learn more

10-Day Weather Forecast

Advertisements
Track Severe Weather on mobile